Time;durP1;ratioP1;P1;durP2;ratioP2;P2;SDS_P1;SDS_P2;PMS_P1;PMS_P2;Temp;Humidity;BMP_temperature;BMP_pressure;BME280_temperature;BME280_humidity;BME280_pressure;Samples;Min_cycle;Max_cycle;Signal;HPM_P1;HPM_P2
2022/05/07 00:02:18;;;;;;;3.78;1.30;;;12.70;70.20;;;;;;5037721;28;20033;-66
2022/05/07 00:04:45;;;;;;;2.95;1.05;;;12.70;70.10;;;;;;5041429;28;20037;-65
2022/05/07 00:07:13;;;;;;;4.30;0.90;;;12.70;70.20;;;;;;5046945;28;20431;-66
2022/05/07 00:09:40;;;;;;;6.03;1.50;;;12.70;70.20;;;;;;5044614;28;20043;-66
2022/05/07 00:12:08;;;;;;;3.40;1.42;;;12.60;70.50;;;;;;5041550;28;20052;-66
2022/05/07 00:14:35;;;;;;;3.88;1.30;;;12.60;70.50;;;;;;5029457;28;20056;-65
2022/05/07 00:19:48;;;;;;;4.20;1.00;;;12.50;70.60;;;;;;5047705;28;20132;-67
2022/05/07 00:22:16;;;;;;;3.08;0.90;;;12.50;70.50;;;;;;5041487;28;20044;-67
2022/05/07 00:24:43;;;;;;;2.38;1.00;;;12.50;70.60;;;;;;5043868;28;20053;-64
2022/05/07 00:27:12;;;;;;;9.27;1.33;;;12.50;70.60;;;;;;5045066;28;20060;-66
2022/05/07 00:29:39;;;;;;;2.37;1.03;;;12.40;70.70;;;;;;5040794;28;20423;-65
2022/05/07 00:32:09;;;;;;;4.40;1.13;;;12.40;70.60;;;;;;5040694;28;20479;-64
2022/05/07 00:34:37;;;;;;;2.63;1.20;;;12.40;70.70;;;;;;5058041;28;20043;-66
2022/05/07 00:37:04;;;;;;;3.33;1.30;;;12.40;70.70;;;;;;5077560;28;20037;-64
2022/05/07 00:39:31;;;;;;;4.22;1.38;;;12.40;70.50;;;;;;5072766;28;20043;-64
2022/05/07 00:42:03;;;;;;;3.55;1.20;;;12.30;70.70;;;;;;5065106;28;20046;-64
2022/05/07 00:44:30;;;;;;;2.20;1.00;;;12.30;70.80;;;;;;5067854;28;20032;-64
2022/05/07 00:47:07;;;;;;;4.22;1.25;;;12.30;70.80;;;;;;5061978;28;20048;-64
2022/05/07 00:49:36;;;;;;;1.45;1.00;;;12.20;70.80;;;;;;5065180;28;20549;-65
2022/05/07 00:52:03;;;;;;;2.33;1.00;;;12.20;70.90;;;;;;5051932;28;20053;-65
2022/05/07 00:54:30;;;;;;;1.50;0.93;;;12.20;71.10;;;;;;5071168;28;20047;-65
2022/05/07 00:56:57;;;;;;;3.03;1.20;;;12.10;71.20;;;;;;5072245;28;20044;-62
2022/05/07 00:59:24;;;;;;;2.85;1.08;;;12.10;71.40;;;;;;5074415;28;20032;-65
2022/05/07 01:01:51;;;;;;;2.97;0.93;;;12.00;71.50;;;;;;5045298;28;20048;-65
2022/05/07 01:04:18;;;;;;;2.65;1.38;;;12.00;71.40;;;;;;5069533;28;20043;-64
2022/05/07 01:06:47;;;;;;;2.80;1.50;;;11.90;71.60;;;;;;5057852;28;20041;-64
2022/05/07 01:09:14;;;;;;;3.03;1.77;;;12.00;71.70;;;;;;5064011;28;20068;-64
2022/05/07 01:11:41;;;;;;;3.00;1.30;;;12.00;71.70;;;;;;5060007;28;20887;-64
2022/05/07 01:14:08;;;;;;;2.17;1.38;;;12.00;71.70;;;;;;5068094;28;20090;-67
2022/05/07 01:16:35;;;;;;;4.07;1.05;;;11.90;71.60;;;;;;5049297;28;20055;-66
2022/05/07 01:19:02;;;;;;;1.88;1.00;;;12.00;71.60;;;;;;5057898;28;20132;-67
2022/05/07 01:21:31;;;;;;;3.95;1.50;;;11.90;71.60;;;;;;5053091;28;20045;-65
2022/05/07 01:23:59;;;;;;;3.22;1.15;;;11.90;71.70;;;;;;5055106;28;20068;-65
2022/05/07 01:26:31;;;;;;;3.10;1.70;;;11.90;71.70;;;;;;5057243;28;20044;-64
2022/05/07 01:29:01;;;;;;;3.17;1.30;;;11.90;71.70;;;;;;5071048;28;20049;-65
2022/05/07 01:31:31;;;;;;;3.00;1.60;;;11.80;71.80;;;;;;5041165;28;20056;-65
2022/05/07 01:33:58;;;;;;;4.00;1.15;;;11.80;71.80;;;;;;5064207;28;20075;-64
2022/05/07 01:36:27;;;;;;;4.57;1.30;;;11.80;71.80;;;;;;5063588;28;20105;-65
2022/05/07 01:39:01;;;;;;;2.28;0.88;;;11.70;71.80;;;;;;5071017;28;20049;-65
2022/05/07 01:41:29;;;;;;;2.95;1.40;;;11.70;71.80;;;;;;5066989;28;20456;-65
2022/05/07 01:43:58;;;;;;;2.80;1.20;;;11.70;71.90;;;;;;5042056;28;20068;-66
2022/05/07 01:49:14;;;;;;;2.63;1.20;;;11.60;72.10;;;;;;5059789;28;20041;-65
2022/05/07 01:51:41;;;;;;;2.60;1.10;;;11.60;72.20;;;;;;5067817;28;20128;-63
2022/05/07 01:54:09;;;;;;;2.00;0.95;;;11.50;72.30;;;;;;5044191;28;20924;-66
2022/05/07 01:56:36;;;;;;;2.83;1.20;;;11.40;72.60;;;;;;5057889;28;20157;-65
2022/05/07 01:59:03;;;;;;;3.85;1.77;;;11.40;72.70;;;;;;5062644;28;20045;-64
2022/05/07 02:01:30;;;;;;;5.32;1.35;;;11.30;72.80;;;;;;5042922;28;20049;-66
2022/05/07 02:03:57;;;;;;;3.10;1.25;;;11.30;72.90;;;;;;5063596;28;20143;-64
2022/05/07 02:06:27;;;;;;;4.90;1.27;;;11.30;72.80;;;;;;5051394;28;20059;-65
2022/05/07 02:08:54;;;;;;;2.65;1.52;;;11.30;72.70;;;;;;5065985;28;20164;-65
2022/05/07 02:11:26;;;;;;;2.35;1.27;;;11.30;72.70;;;;;;5046539;28;20040;-66
2022/05/07 02:13:53;;;;;;;2.53;1.35;;;11.40;72.50;;;;;;5063010;28;20055;-65
2022/05/07 02:16:20;;;;;;;3.63;1.60;;;11.40;72.50;;;;;;5063573;28;20041;-65
2022/05/07 02:18:47;;;;;;;4.47;1.90;;;11.40;72.60;;;;;;5060009;28;20057;-65
2022/05/07 02:21:14;;;;;;;3.75;1.40;;;11.30;72.80;;;;;;5061090;28;20123;-65
2022/05/07 02:23:41;;;;;;;2.63;1.27;;;11.30;72.80;;;;;;5045590;28;20044;-65
2022/05/07 02:26:08;;;;;;;3.42;1.20;;;11.20;72.80;;;;;;5044651;28;20039;-64
2022/05/07 02:28:38;;;;;;;1.45;0.98;;;11.20;73.00;;;;;;5061641;28;20072;-64
2022/05/07 02:31:07;;;;;;;3.35;1.40;;;11.30;72.90;;;;;;5063874;28;20094;-65
2022/05/07 02:33:34;;;;;;;5.53;1.23;;;11.20;72.80;;;;;;5037762;28;20052;-66
2022/05/07 02:36:01;;;;;;;2.55;1.15;;;11.20;72.60;;;;;;5050216;28;20501;-64
2022/05/07 02:38:28;;;;;;;3.70;1.08;;;11.20;72.70;;;;;;5062616;28;20036;-64
2022/05/07 02:43:43;;;;;;;2.58;1.00;;;11.20;72.50;;;;;;5058384;28;20060;-65
2022/05/07 02:46:14;;;;;;;2.75;1.05;;;11.10;72.60;;;;;;5064442;28;20044;-65
2022/05/07 02:48:44;;;;;;;3.10;1.30;;;11.00;72.80;;;;;;5045466;28;20063;-65
2022/05/07 02:51:13;;;;;;;1.60;1.08;;;11.00;72.80;;;;;;5060949;28;20044;-67
2022/05/07 02:53:42;;;;;;;2.35;1.17;;;11.00;72.90;;;;;;5048896;28;20114;-64
2022/05/07 02:56:09;;;;;;;3.88;1.30;;;11.00;73.00;;;;;;5066153;28;20043;-65
2022/05/07 02:58:36;;;;;;;3.47;1.63;;;10.90;73.00;;;;;;5065017;28;20052;-65
2022/05/07 03:01:04;;;;;;;3.53;1.10;;;10.90;73.10;;;;;;5034083;28;20528;-66
2022/05/07 03:03:31;;;;;;;3.00;1.33;;;10.90;73.10;;;;;;5046249;28;20178;-64
2022/05/07 03:06:03;;;;;;;3.00;0.95;;;10.90;73.20;;;;;;5066834;28;20541;-65
2022/05/07 03:08:34;;;;;;;;;;;10.80;73.40;;;;;;5041852;28;20118;-65
2022/05/07 03:11:01;;;;;;;2.20;1.05;;;10.70;73.30;;;;;;5039087;28;19970;-64
2022/05/07 03:13:30;;;;;;;3.88;1.05;;;10.70;73.40;;;;;;5047128;28;20056;-65
2022/05/07 03:15:57;;;;;;;2.80;1.35;;;10.70;73.60;;;;;;5063881;28;20040;-65
2022/05/07 03:18:25;;;;;;;2.50;1.10;;;10.70;73.50;;;;;;5037188;28;20886;-66
2022/05/07 03:20:54;;;;;;;2.78;1.10;;;10.70;73.60;;;;;;5044619;28;20048;-64
2022/05/07 03:23:21;;;;;;;6.07;1.48;;;10.70;73.60;;;;;;5060679;28;20040;-66
2022/05/07 03:25:52;;;;;;;2.33;1.20;;;10.70;73.70;;;;;;5042540;28;20187;-65
2022/05/07 03:28:19;;;;;;;2.40;1.33;;;10.70;73.60;;;;;;5037635;28;20454;-64
2022/05/07 03:30:46;;;;;;;5.07;1.77;;;10.70;73.60;;;;;;5045767;28;20048;-65
2022/05/07 03:33:14;;;;;;;2.45;1.08;;;10.70;73.60;;;;;;5068445;28;20057;-64
2022/05/07 03:35:45;;;;;;;3.10;1.20;;;10.60;73.80;;;;;;5060040;28;20101;-64
2022/05/07 03:38:12;;;;;;;4.35;1.20;;;10.60;73.70;;;;;;5070144;28;20040;-65
2022/05/07 03:40:51;;;;;;;3.88;1.25;;;10.60;73.80;;;;;;5050926;28;20085;-65
2022/05/07 03:43:21;;;;;;;1.90;1.15;;;10.60;73.90;;;;;;5063905;28;20076;-66
2022/05/07 03:45:48;;;;;;;2.42;1.25;;;10.50;74.00;;;;;;5048574;28;20139;-65
2022/05/07 03:48:16;;;;;;;2.60;1.10;;;10.50;73.90;;;;;;5067650;28;20041;-63
2022/05/07 03:50:50;;;;;;;2.35;1.00;;;10.50;74.10;;;;;;5063931;28;20121;-66
2022/05/07 03:53:31;;;;;;;3.20;1.40;;;10.50;74.10;;;;;;5068831;28;20076;-65
2022/05/07 03:56:13;;;;;;;2.83;1.27;;;10.40;74.00;;;;;;5064250;28;20076;-65
2022/05/07 03:58:40;;;;;;;6.35;1.83;;;10.50;73.90;;;;;;5051289;28;20139;-66
2022/05/07 04:01:08;;;;;;;3.42;1.10;;;10.40;73.90;;;;;;5064798;28;20040;-66
2022/05/07 04:03:37;;;;;;;2.33;1.20;;;10.40;74.10;;;;;;5069247;28;20101;-65
2022/05/07 04:06:06;;;;;;;2.65;1.25;;;10.40;74.20;;;;;;5070933;28;20055;-65
2022/05/07 04:08:34;;;;;;;2.78;1.38;;;10.40;74.20;;;;;;5051591;28;20410;-65
2022/05/07 04:11:03;;;;;;;2.60;1.17;;;10.40;74.20;;;;;;5047536;28;20048;-65
2022/05/07 04:13:30;;;;;;;3.83;1.10;;;10.40;74.00;;;;;;5067920;28;20497;-65
2022/05/07 04:15:59;;;;;;;4.25;1.38;;;10.40;74.00;;;;;;5064791;28;20044;-65
2022/05/07 04:18:32;;;;;;;1.85;1.05;;;10.40;74.00;;;;;;5046308;28;20071;-65
2022/05/07 04:21:02;;;;;;;2.40;1.20;;;10.30;74.10;;;;;;5067255;28;20045;-63
2022/05/07 04:23:31;;;;;;;4.90;1.52;;;10.40;74.10;;;;;;5051531;28;20632;-64
2022/05/07 04:25:58;;;;;;;3.47;1.60;;;10.30;74.20;;;;;;5065897;28;20048;-66
2022/05/07 04:28:27;;;;;;;2.87;1.43;;;10.30;74.20;;;;;;5050664;28;20048;-64
2022/05/07 04:30:57;;;;;;;4.13;1.63;;;10.20;74.50;;;;;;5051828;28;20128;-64
2022/05/07 04:33:28;;;;;;;2.67;1.20;;;10.20;74.50;;;;;;5056584;28;20048;-62
2022/05/07 04:36:01;;;;;;;2.25;1.38;;;10.30;74.40;;;;;;5038832;28;20098;-63
2022/05/07 04:38:30;;;;;;;3.35;1.40;;;10.30;74.40;;;;;;5048673;28;20060;-64
2022/05/07 04:40:58;;;;;;;2.78;1.27;;;10.30;74.40;;;;;;5032057;28;20052;-64
2022/05/07 04:43:29;;;;;;;2.97;1.33;;;10.30;74.40;;;;;;5030589;28;20511;-66
2022/05/07 04:45:57;;;;;;;4.90;1.20;;;10.30;74.50;;;;;;5030046;28;20505;-64
2022/05/07 04:48:24;;;;;;;2.35;1.08;;;10.30;74.60;;;;;;5050278;28;20051;-65
2022/05/07 04:50:51;;;;;;;2.90;1.23;;;10.30;74.60;;;;;;5031797;28;20055;-63
2022/05/07 04:53:34;;;;;;;3.25;1.10;;;10.20;74.70;;;;;;5034840;28;20140;-64
2022/05/07 04:56:11;;;;;;;3.13;2.05;;;10.30;74.60;;;;;;5035423;28;20063;-64
2022/05/07 04:58:45;;;;;;;2.55;1.00;;;10.30;74.80;;;;;;5034833;28;20044;-64
2022/05/07 05:01:12;;;;;;;2.75;1.48;;;10.30;74.80;;;;;;5039943;28;20099;-64
2022/05/07 05:03:45;;;;;;;2.45;1.25;;;10.30;74.70;;;;;;5042637;28;20053;-66
2022/05/07 05:06:22;;;;;;;3.42;1.35;;;10.40;74.70;;;;;;5024339;28;20950;-66
2022/05/07 05:09:10;;;;;;;2.90;1.40;;;10.40;74.70;;;;;;5038373;28;20402;-65
2022/05/07 05:11:46;;;;;;;2.28;1.23;;;10.30;74.90;;;;;;5035113;28;20059;-64
2022/05/07 05:17:00;;;;;;;3.15;1.20;;;10.40;74.90;;;;;;5040801;28;20347;-64
2022/05/07 05:19:29;;;;;;;3.40;1.42;;;10.50;74.70;;;;;;5028437;28;20049;-65
2022/05/07 05:21:58;;;;;;;2.03;1.15;;;10.50;74.60;;;;;;5021495;28;20037;-65
2022/05/07 05:24:36;;;;;;;3.67;1.13;;;10.60;74.50;;;;;;5053048;28;20128;-65
2022/05/07 05:27:04;;;;;;;1.90;0.88;;;10.60;74.70;;;;;;5041960;28;20402;-63
2022/05/07 05:29:38;;;;;;;4.30;1.52;;;10.60;74.90;;;;;;5036916;28;20068;-65
2022/05/07 05:32:08;;;;;;;5.53;1.50;;;10.60;74.90;;;;;;5046873;28;20053;-66
2022/05/07 05:34:39;;;;;;;3.45;1.40;;;10.60;74.90;;;;;;5049724;28;20045;-65
2022/05/07 05:37:07;;;;;;;4.10;1.70;;;10.70;74.70;;;;;;5031658;28;20052;-65
2022/05/07 05:39:43;;;;;;;5.07;1.48;;;10.70;74.70;;;;;;5031507;28;20045;-65
2022/05/07 05:42:11;;;;;;;4.57;1.63;;;10.70;74.90;;;;;;5051530;28;20144;-64
2022/05/07 05:44:42;;;;;;;2.83;1.30;;;10.70;74.80;;;;;;5048367;28;20048;-65
2022/05/07 05:47:14;;;;;;;2.28;1.17;;;10.80;74.80;;;;;;5033838;28;20576;-65
2022/05/07 05:49:41;;;;;;;4.00;1.48;;;10.80;74.90;;;;;;5043567;28;20118;-64
2022/05/07 05:52:09;;;;;;;2.58;1.20;;;10.90;74.80;;;;;;5033464;28;20494;-64
2022/05/07 05:54:37;;;;;;;2.47;1.10;;;10.90;74.70;;;;;;5033850;28;20052;-65
2022/05/07 05:57:07;;;;;;;3.20;1.60;;;10.90;74.70;;;;;;5032708;28;20067;-65
2022/05/07 05:59:34;;;;;;;3.42;1.50;;;10.90;74.90;;;;;;5027744;28;20045;-66
2022/05/07 06:02:01;;;;;;;3.80;1.50;;;10.90;75.20;;;;;;5045766;28;20051;-65
2022/05/07 06:04:35;;;;;;;3.65;1.58;;;11.00;75.20;;;;;;5043876;28;20274;-65
2022/05/07 06:07:15;;;;;;;4.68;1.40;;;11.00;75.10;;;;;;5036315;28;20052;-63
2022/05/07 06:09:43;;;;;;;4.90;1.70;;;11.10;75.00;;;;;;5040011;28;20045;-64
2022/05/07 06:12:18;;;;;;;4.35;1.63;;;11.10;75.00;;;;;;5040091;28;20111;-64
2022/05/07 06:14:46;;;;;;;2.95;1.30;;;11.20;74.90;;;;;;5025112;28;20049;-66
2022/05/07 06:17:15;;;;;;;2.17;1.10;;;11.20;74.70;;;;;;5025095;28;20132;-65
2022/05/07 06:19:46;;;;;;;4.05;1.50;;;11.30;74.90;;;;;;5023339;28;20041;-66
2022/05/07 06:22:14;;;;;;;3.15;1.25;;;11.30;74.70;;;;;;5028960;28;20487;-65
2022/05/07 06:27:35;;;;;;;3.75;1.70;;;11.50;74.70;;;;;;5031080;28;20053;-65
2022/05/07 06:30:10;;;;;;;3.50;1.45;;;11.60;74.60;;;;;;5045271;28;20478;-65
2022/05/07 06:32:46;;;;;;;3.92;1.80;;;11.70;74.40;;;;;;5032108;28;20056;-63
2022/05/07 06:35:14;;;;;;;3.90;2.15;;;11.80;74.40;;;;;;5043125;28;20056;-65
2022/05/07 06:37:53;;;;;;;4.88;1.92;;;11.90;74.30;;;;;;5045837;28;20060;-66
2022/05/07 06:40:21;;;;;;;7.13;2.15;;;12.10;74.20;;;;;;5066311;28;20108;-66
2022/05/07 06:42:52;;;;;;;5.30;1.88;;;12.20;73.80;;;;;;5059594;28;20044;-65
2022/05/07 06:45:25;;;;;;;5.70;1.90;;;12.30;73.70;;;;;;5043682;28;20143;-65
2022/05/07 06:47:52;;;;;;;5.88;1.60;;;12.50;73.50;;;;;;5046929;28;20086;-66
2022/05/07 06:50:20;;;;;;;5.03;1.95;;;12.60;73.20;;;;;;5065804;28;20048;-67
2022/05/07 06:52:47;;;;;;;3.38;1.55;;;12.80;72.60;;;;;;5057895;28;20082;-66
2022/05/07 06:55:15;;;;;;;3.08;1.70;;;12.90;72.80;;;;;;5066795;28;20044;-66
2022/05/07 06:57:42;;;;;;;2.95;1.55;;;13.10;72.30;;;;;;5068128;28;20068;-65
2022/05/07 07:00:12;;;;;;;3.83;1.45;;;13.20;72.20;;;;;;5062835;28;20557;-65
2022/05/07 07:02:39;;;;;;;3.35;1.58;;;13.30;72.20;;;;;;5061164;28;20106;-64
2022/05/07 07:05:07;;;;;;;4.03;1.60;;;13.50;72.10;;;;;;5043375;28;20044;-65
2022/05/07 07:07:34;;;;;;;2.97;1.33;;;13.70;71.60;;;;;;5059876;28;20037;-67
2022/05/07 07:10:01;;;;;;;4.78;1.50;;;13.80;71.70;;;;;;5059343;28;20044;-66
2022/05/07 07:12:29;;;;;;;5.15;1.52;;;14.00;71.50;;;;;;5058913;28;20048;-65
2022/05/07 07:14:59;;;;;;;2.80;1.20;;;14.10;71.40;;;;;;5059723;28;20048;-66
2022/05/07 07:17:28;;;;;;;2.33;1.08;;;14.30;71.00;;;;;;5058800;28;20111;-66
2022/05/07 07:19:55;;;;;;;2.88;1.48;;;14.50;70.20;;;;;;5064470;28;20445;-65
2022/05/07 07:22:22;;;;;;;2.67;1.30;;;14.60;70.10;;;;;;5068335;28;20048;-66
2022/05/07 07:24:50;;;;;;;2.95;1.38;;;14.70;69.60;;;;;;5064981;28;20093;-65
2022/05/07 07:27:17;;;;;;;3.58;1.35;;;14.90;69.30;;;;;;5069157;28;20048;-65
2022/05/07 07:29:47;;;;;;;3.50;1.48;;;15.10;69.00;;;;;;5066248;28;21117;-64
2022/05/07 07:32:15;;;;;;;5.40;1.70;;;15.20;68.90;;;;;;5064340;28;20131;-66
2022/05/07 07:34:45;;;;;;;4.82;1.80;;;15.30;68.30;;;;;;5039489;28;20072;-64
2022/05/07 07:37:12;;;;;;;3.55;1.33;;;15.40;68.40;;;;;;5038868;28;20116;-67
2022/05/07 07:39:39;;;;;;;4.07;2.38;;;15.60;68.40;;;;;;5036361;28;20462;-67
2022/05/07 07:42:07;;;;;;;3.97;1.38;;;15.70;68.30;;;;;;5039021;28;20485;-65
2022/05/07 07:44:34;;;;;;;4.40;2.35;;;15.80;68.40;;;;;;5040436;28;20045;-65
2022/05/07 07:49:46;;;;;;;2.55;1.48;;;16.10;67.80;;;;;;5040097;28;20052;-66
2022/05/07 07:52:15;;;;;;;2.85;1.48;;;16.20;67.50;;;;;;5045116;28;20076;-65
2022/05/07 07:54:43;;;;;;;3.90;1.30;;;16.40;67.40;;;;;;5045814;28;20037;-66
2022/05/07 07:57:10;;;;;;;2.83;1.48;;;16.50;67.20;;;;;;5048995;28;20045;-66
2022/05/07 07:59:39;;;;;;;3.75;1.58;;;16.60;66.40;;;;;;5047373;28;20144;-67
2022/05/07 08:02:07;;;;;;;2.35;1.27;;;16.70;65.10;;;;;;5038936;28;20053;-66
2022/05/07 08:04:34;;;;;;;5.30;1.35;;;16.90;65.60;;;;;;5038176;28;20151;-66
2022/05/07 08:12:32;;;;;;;4.32;1.83;;;17.30;64.50;;;;;;5032798;28;20080;-64
2022/05/07 08:14:58;;;;;;;3.08;1.30;;;17.40;63.30;;;;;;5046253;28;20053;-66
2022/05/07 08:17:25;;;;;;;3.40;1.55;;;17.50;63.20;;;;;;5037054;28;20073;-65
2022/05/07 08:19:52;;;;;;;4.20;1.52;;;17.60;62.80;;;;;;5032784;28;20047;-65
2022/05/07 08:22:20;;;;;;;3.83;1.40;;;17.70;63.50;;;;;;5041778;28;20049;-64
2022/05/07 08:24:47;;;;;;;3.63;1.50;;;17.90;61.80;;;;;;5040571;28;20054;-66
2022/05/07 08:27:14;;;;;;;4.18;1.30;;;18.00;61.10;;;;;;5041845;28;20136;-66
2022/05/07 08:29:41;;;;;;;2.60;1.38;;;18.10;59.10;;;;;;5050155;28;20485;-66
2022/05/07 08:32:09;;;;;;;4.75;2.10;;;18.20;58.00;;;;;;5044836;28;20045;-67
2022/05/07 08:34:37;;;;;;;4.13;2.00;;;18.30;58.40;;;;;;5056075;28;20040;-65
2022/05/07 08:37:04;;;;;;;4.00;1.60;;;18.40;59.10;;;;;;5061518;28;20517;-66
2022/05/07 08:39:32;;;;;;;5.38;2.20;;;18.40;59.00;;;;;;5063323;28;20111;-65
2022/05/07 08:41:59;;;;;;;5.35;2.00;;;18.50;58.60;;;;;;5064819;28;20597;-67
2022/05/07 08:44:26;;;;;;;3.42;1.30;;;18.60;58.30;;;;;;5061126;28;20165;-65
2022/05/07 08:46:53;;;;;;;3.20;1.23;;;18.70;57.50;;;;;;5065673;28;20485;-65
2022/05/07 08:49:21;;;;;;;4.32;1.15;;;18.80;57.00;;;;;;5057997;28;20051;-66
2022/05/07 08:51:50;;;;;;;2.05;1.10;;;19.00;56.30;;;;;;5063563;28;20129;-66
2022/05/07 08:54:18;;;;;;;3.13;1.58;;;19.00;55.40;;;;;;5068082;28;20048;-67
2022/05/07 08:56:46;;;;;;;5.10;1.45;;;19.10;55.20;;;;;;5066517;28;20401;-67
2022/05/07 08:59:13;;;;;;;4.78;1.20;;;19.20;54.10;;;;;;5072781;28;20044;-68
2022/05/07 09:01:42;;;;;;;2.22;0.93;;;19.30;54.20;;;;;;5064740;28;20377;-66
2022/05/07 09:04:10;;;;;;;2.95;1.10;;;19.40;53.10;;;;;;5063148;28;20045;-67
2022/05/07 09:06:37;;;;;;;1.80;0.70;;;19.50;52.40;;;;;;5063165;28;20043;-68
2022/05/07 09:09:06;;;;;;;2.67;0.70;;;19.60;52.50;;;;;;5064234;28;20044;-67
2022/05/07 09:11:42;;;;;;;3.05;0.73;;;19.60;52.50;;;;;;5060787;28;20516;-67
2022/05/07 09:14:11;;;;;;;1.88;0.80;;;19.70;51.80;;;;;;5055880;28;20466;-66
2022/05/07 09:16:42;;;;;;;2.83;0.80;;;19.80;51.70;;;;;;5070038;28;20535;-67
2022/05/07 09:19:23;;;;;;;1.23;0.70;;;19.90;51.50;;;;;;5069030;28;20066;-66
2022/05/07 09:21:50;;;;;;;2.05;0.88;;;20.00;50.70;;;;;;5064307;28;20036;-66
2022/05/07 09:24:18;;;;;;;1.33;0.85;;;20.10;51.20;;;;;;5061384;28;20051;-66
2022/05/07 09:26:47;;;;;;;1.75;0.90;;;20.10;51.90;;;;;;5063941;28;20048;-68
2022/05/07 09:29:16;;;;;;;1.50;0.80;;;20.20;51.40;;;;;;5062476;28;20414;-66
2022/05/07 09:31:45;;;;;;;1.38;0.85;;;20.30;52.00;;;;;;5061736;28;20049;-66
2022/05/07 09:37:00;;;;;;;3.47;0.80;;;20.50;51.10;;;;;;5042497;28;20126;-68
2022/05/07 09:39:35;;;;;;;4.28;1.58;;;20.50;51.10;;;;;;5047228;28;20457;-67
2022/05/07 09:42:02;;;;;;;1.80;0.82;;;20.60;50.90;;;;;;5038841;28;20049;-67
2022/05/07 09:44:31;;;;;;;4.30;1.30;;;20.60;51.00;;;;;;5044527;28;20068;-67
2022/05/07 09:46:59;;;;;;;3.08;1.20;;;20.80;50.40;;;;;;5042801;28;20045;-66
2022/05/07 09:49:27;;;;;;;7.68;2.00;;;20.80;50.60;;;;;;5040589;28;20044;-67
2022/05/07 09:51:55;;;;;;;1.83;1.05;;;20.80;48.70;;;;;;5038891;28;20152;-69
2022/05/07 09:59:56;;;;;;;2.63;1.10;;;21.00;49.30;;;;;;5036141;28;20075;-66
2022/05/07 10:02:41;;;;;;;2.33;1.00;;;21.10;49.50;;;;;;5038864;28;20049;-66
2022/05/07 10:05:33;;;;;;;3.30;0.93;;;21.10;49.50;;;;;;5041961;28;20055;-67
2022/05/07 10:08:15;;;;;;;2.08;0.95;;;21.20;48.80;;;;;;5041126;28;20045;-68
2022/05/07 10:10:45;;;;;;;1.50;0.80;;;21.20;48.70;;;;;;5033620;28;20124;-64
2022/05/07 10:13:17;;;;;;;2.88;1.05;;;21.30;49.00;;;;;;5033821;28;20048;-64
2022/05/07 10:15:58;;;;;;;4.22;0.80;;;21.30;49.80;;;;;;5036918;28;20048;-64
2022/05/07 10:18:35;;;;;;;3.13;0.88;;;21.40;49.30;;;;;;5043938;28;20075;-68
2022/05/07 10:21:12;;;;;;;3.00;1.20;;;21.30;49.80;;;;;;5040943;28;20177;-65
2022/05/07 10:23:49;;;;;;;1.67;1.00;;;21.30;49.60;;;;;;5037135;28;20410;-67
2022/05/07 10:26:17;;;;;;;1.60;0.90;;;21.30;49.10;;;;;;5039303;28;20095;-66
2022/05/07 10:28:44;;;;;;;3.40;1.20;;;21.30;49.40;;;;;;5034326;28;20036;-68
2022/05/07 10:31:22;;;;;;;2.85;1.17;;;21.30;49.30;;;;;;5040830;28;20490;-66
2022/05/07 10:33:50;;;;;;;2.30;1.02;;;21.50;49.30;;;;;;5039172;28;20053;-64
2022/05/07 10:36:18;;;;;;;3.15;0.90;;;21.60;49.10;;;;;;5012418;28;20053;-65
2022/05/07 10:38:46;;;;;;;2.55;1.10;;;21.70;47.80;;;;;;5036126;28;20041;-68
2022/05/07 10:41:24;;;;;;;2.00;1.00;;;21.80;48.00;;;;;;5038718;28;20544;-67
2022/05/07 10:44:04;;;;;;;3.03;1.10;;;21.80;46.40;;;;;;5046920;28;20052;-66
2022/05/07 10:46:45;;;;;;;2.90;1.33;;;21.80;46.10;;;;;;5047166;28;20474;-67
2022/05/07 10:49:18;;;;;;;2.35;1.00;;;21.70;45.30;;;;;;5034504;28;20387;-66
2022/05/07 10:51:51;;;;;;;3.67;1.10;;;21.80;45.10;;;;;;5043795;28;20047;-68
2022/05/07 10:54:22;;;;;;;2.90;1.17;;;21.90;45.40;;;;;;5045348;28;20124;-67
2022/05/07 10:56:51;;;;;;;2.58;0.88;;;22.00;45.00;;;;;;5047957;28;20041;-66
2022/05/07 10:59:18;;;;;;;1.75;0.80;;;22.00;45.60;;;;;;5047088;28;20045;-67
2022/05/07 11:01:50;;;;;;;4.22;1.40;;;22.00;45.10;;;;;;5036821;28;20041;-66
2022/05/07 11:04:19;;;;;;;4.35;1.40;;;22.00;44.80;;;;;;5039958;28;20127;-66
2022/05/07 11:06:49;;;;;;;4.50;1.00;;;21.90;44.30;;;;;;5040883;28;20410;-66
2022/05/07 11:09:18;;;;;;;1.65;1.00;;;21.80;43.80;;;;;;5038965;28;20217;-67
2022/05/07 11:11:46;;;;;;;2.17;0.95;;;21.60;44.00;;;;;;5038753;28;20072;-66
2022/05/07 11:14:22;;;;;;;5.68;1.02;;;21.60;44.50;;;;;;5038760;28;20041;-66
2022/05/07 11:16:51;;;;;;;3.72;1.30;;;21.60;44.60;;;;;;5037370;28;20044;-65
2022/05/07 11:19:28;;;;;;;1.83;1.10;;;21.40;44.80;;;;;;5042131;28;20124;-66
2022/05/07 11:21:57;;;;;;;1.63;0.82;;;21.40;45.20;;;;;;5039774;28;20041;-66
2022/05/07 11:24:25;;;;;;;2.67;1.08;;;21.50;44.90;;;;;;5036153;28;20143;-66
2022/05/07 11:26:53;;;;;;;3.25;1.20;;;21.60;45.70;;;;;;5046192;28;20533;-66
2022/05/07 11:29:21;;;;;;;4.50;1.15;;;21.60;46.60;;;;;;5025662;28;20074;-67
2022/05/07 11:31:57;;;;;;;2.10;0.93;;;21.70;46.60;;;;;;5045037;28;20398;-66
2022/05/07 11:34:34;;;;;;;2.78;1.27;;;21.70;46.50;;;;;;5032759;28;20518;-66
2022/05/07 11:37:14;;;;;;;3.75;1.30;;;21.80;46.20;;;;;;5044068;28;20049;-74
2022/05/07 11:39:51;;;;;;;5.75;1.58;;;21.90;46.00;;;;;;5037141;28;20052;-73
2022/05/07 11:42:29;;;;;;;2.40;1.10;;;21.90;45.80;;;;;;5043994;28;20094;-75
2022/05/07 11:47:53;;;;;;;2.53;1.20;;;22.00;45.30;;;;;;5037151;28;20041;-74
2022/05/07 11:50:22;;;;;;;4.20;1.20;;;22.10;45.70;;;;;;5038496;28;20891;-74
2022/05/07 11:52:49;;;;;;;2.53;1.20;;;22.10;45.50;;;;;;5036234;28;20041;-73
2022/05/07 11:55:17;;;;;;;2.83;1.38;;;22.10;45.60;;;;;;5037638;28;20120;-73
2022/05/07 11:57:46;;;;;;;2.00;1.02;;;22.00;46.40;;;;;;5039328;28;20410;-75
2022/05/07 12:00:15;;;;;;;2.15;1.00;;;21.90;46.30;;;;;;5040356;28;20119;-74
2022/05/07 12:02:50;;;;;;;2.42;1.10;;;21.90;46.00;;;;;;5044323;28;20045;-72
2022/05/07 12:05:19;;;;;;;3.83;0.90;;;22.10;45.50;;;;;;5043979;28;20438;-75
2022/05/07 12:07:48;;;;;;;2.80;1.08;;;22.10;45.80;;;;;;5046186;28;20037;-73
2022/05/07 12:10:16;;;;;;;2.35;0.95;;;22.10;45.90;;;;;;5037856;28;20094;-73
2022/05/07 12:12:43;;;;;;;2.47;1.30;;;22.10;46.20;;;;;;5041729;28;20368;-75
2022/05/07 12:15:10;;;;;;;1.88;1.10;;;22.10;45.90;;;;;;5046214;28;20077;-74
2022/05/07 12:17:55;;;;;;;2.10;1.13;;;22.10;45.40;;;;;;5041801;28;20045;-73
2022/05/07 12:20:25;;;;;;;2.47;1.20;;;22.10;45.40;;;;;;5051087;28;20391;-74
2022/05/07 12:31:07;;;;;;;3.05;1.15;;;22.00;46.40;;;;;;5048493;28;20120;-74
2022/05/07 12:33:36;;;;;;;1.98;1.02;;;22.00;46.40;;;;;;5046191;28;20053;-74
2022/05/07 12:36:05;;;;;;;3.30;1.10;;;22.00;46.30;;;;;;5015658;28;20060;-75
2022/05/07 12:38:32;;;;;;;2.30;0.90;;;22.10;46.00;;;;;;5034012;28;20136;-72
2022/05/07 12:40:59;;;;;;;4.25;1.25;;;22.10;45.70;;;;;;5016796;28;20041;-74
2022/05/07 12:43:28;;;;;;;2.28;0.98;;;22.10;44.70;;;;;;5043624;28;20048;-73
2022/05/07 12:45:55;;;;;;;1.75;0.85;;;22.10;44.50;;;;;;5032206;28;20151;-72
2022/05/07 12:48:22;;;;;;;1.73;0.70;;;22.10;44.30;;;;;;5043543;28;20049;-75
2022/05/07 12:50:49;;;;;;;3.08;0.82;;;22.10;43.30;;;;;;5043403;28;20073;-75
2022/05/07 12:53:18;;;;;;;2.08;1.00;;;22.10;44.30;;;;;;5043491;28;20150;-75
2022/05/07 12:55:45;;;;;;;3.08;0.98;;;22.00;43.60;;;;;;5042564;28;20053;-75
2022/05/07 12:58:12;;;;;;;1.88;0.73;;;22.00;44.80;;;;;;5043968;28;20486;-75
2022/05/07 13:00:40;;;;;;;3.30;0.80;;;21.90;44.20;;;;;;5038454;28;20155;-75
2022/05/07 13:03:07;;;;;;;1.40;0.90;;;22.00;44.80;;;;;;5042899;28;20057;-76
2022/05/07 13:05:35;;;;;;;5.88;1.55;;;21.90;45.70;;;;;;5050902;28;20040;-77
2022/05/07 13:08:03;;;;;;;2.17;0.98;;;21.90;44.80;;;;;;5049247;28;20041;-77
2022/05/07 13:10:33;;;;;;;1.80;1.10;;;21.90;45.50;;;;;;5045761;28;20102;-77
2022/05/07 13:13:00;;;;;;;3.38;1.15;;;22.10;45.10;;;;;;5047145;28;20045;-75
2022/05/07 13:15:29;;;;;;;2.42;0.77;;;22.20;45.00;;;;;;5048748;28;20053;-75
2022/05/07 13:17:56;;;;;;;2.60;1.00;;;22.20;45.10;;;;;;5051249;28;20087;-75
2022/05/07 13:20:23;;;;;;;1.70;1.02;;;22.20;44.90;;;;;;5034609;28;20041;-75
2022/05/07 13:22:51;;;;;;;1.92;0.80;;;22.20;44.90;;;;;;5050680;28;20073;-73
2022/05/07 13:25:19;;;;;;;2.63;0.98;;;22.30;44.50;;;;;;5047860;28;20128;-75
2022/05/07 13:27:48;;;;;;;1.65;0.80;;;22.20;44.30;;;;;;5049816;28;20052;-75
2022/05/07 13:30:17;;;;;;;2.95;0.70;;;22.20;44.50;;;;;;5048746;28;20052;-74
2022/05/07 13:32:46;;;;;;;2.75;0.70;;;22.10;44.10;;;;;;5049136;28;20072;-75
2022/05/07 13:35:14;;;;;;;2.53;1.13;;;22.10;44.30;;;;;;5045486;28;20052;-76
2022/05/07 13:37:41;;;;;;;1.83;1.10;;;22.10;44.90;;;;;;5049755;28;20041;-74
2022/05/07 13:40:09;;;;;;;3.05;1.42;;;22.10;44.60;;;;;;5048360;28;20702;-73
2022/05/07 13:42:37;;;;;;;1.67;0.93;;;22.00;45.20;;;;;;5047788;28;20049;-73